sensor_id;sensor_type;location;lat;lon;timestamp;P1;durP1;ratioP1;P2;durP2;ratioP2
79249;SDS011;68679;51.030;7.584;2023-08-20T00:00:58;12.10;;;5.30;;
79249;SDS011;68679;51.030;7.584;2023-08-20T00:03:24;9.90;;;5.57;;
79249;SDS011;68679;51.030;7.584;2023-08-20T00:05:49;13.23;;;5.88;;
79249;SDS011;68679;51.030;7.584;2023-08-20T00:08:15;8.60;;;5.20;;
79249;SDS011;68679;51.030;7.584;2023-08-20T00:10:41;9.13;;;5.50;;
79249;SDS011;68679;51.030;7.584;2023-08-20T00:13:06;17.60;;;6.20;;
79249;SDS011;68679;51.030;7.584;2023-08-20T00:15:31;11.67;;;6.13;;
79249;SDS011;68679;51.030;7.584;2023-08-20T00:17:57;10.35;;;5.47;;
79249;SDS011;68679;51.030;7.584;2023-08-20T00:20:22;18.58;;;6.43;;
79249;SDS011;68679;51.030;7.584;2023-08-20T00:22:48;13.05;;;5.60;;
79249;SDS011;68679;51.030;7.584;2023-08-20T00:25:15;12.10;;;6.05;;
79249;SDS011;68679;51.030;7.584;2023-08-20T00:27:41;9.77;;;5.43;;
79249;SDS011;68679;51.030;7.584;2023-08-20T00:30:07;19.75;;;6.32;;
79249;SDS011;68679;51.030;7.584;2023-08-20T00:32:33;8.85;;;5.68;;
79249;SDS011;68679;51.030;7.584;2023-08-20T00:34:59;11.82;;;5.90;;
79249;SDS011;68679;51.030;7.584;2023-08-20T00:37:24;9.65;;;5.40;;
79249;SDS011;68679;51.030;7.584;2023-08-20T00:39:50;15.38;;;6.28;;
79249;SDS011;68679;51.030;7.584;2023-08-20T00:42:15;10.33;;;6.00;;
79249;SDS011;68679;51.030;7.584;2023-08-20T00:44:41;13.15;;;6.28;;
79249;SDS011;68679;51.030;7.584;2023-08-20T00:47:09;10.77;;;5.80;;
79249;SDS011;68679;51.030;7.584;2023-08-20T00:49:35;12.43;;;6.63;;
79249;SDS011;68679;51.030;7.584;2023-08-20T00:52:01;11.07;;;5.40;;
79249;SDS011;68679;51.030;7.584;2023-08-20T00:54:28;13.00;;;6.07;;
79249;SDS011;68679;51.030;7.584;2023-08-20T00:56:54;12.75;;;6.05;;
79249;SDS011;68679;51.030;7.584;2023-08-20T00:59:20;11.15;;;5.38;;
79249;SDS011;68679;51.030;7.584;2023-08-20T01:01:45;12.77;;;6.47;;
79249;SDS011;68679;51.030;7.584;2023-08-20T01:04:11;12.77;;;5.40;;
79249;SDS011;68679;51.030;7.584;2023-08-20T01:06:44;12.23;;;5.93;;
79249;SDS011;68679;51.030;7.584;2023-08-20T01:09:34;11.35;;;5.50;;
79249;SDS011;68679;51.030;7.584;2023-08-20T01:12:03;17.98;;;6.55;;
79249;SDS011;68679;51.030;7.584;2023-08-20T01:14:29;7.78;;;5.25;;
79249;SDS011;68679;51.030;7.584;2023-08-20T01:16:54;9.27;;;5.53;;
79249;SDS011;68679;51.030;7.584;2023-08-20T01:19:20;9.52;;;5.53;;
79249;SDS011;68679;51.030;7.584;2023-08-20T01:30:23;11.63;;;5.82;;
79249;SDS011;68679;51.030;7.584;2023-08-20T01:32:50;13.32;;;5.95;;
79249;SDS011;68679;51.030;7.584;2023-08-20T01:35:17;13.20;;;5.50;;
79249;SDS011;68679;51.030;7.584;2023-08-20T01:37:43;11.57;;;6.00;;
79249;SDS011;68679;51.030;7.584;2023-08-20T01:40:09;9.85;;;6.30;;
79249;SDS011;68679;51.030;7.584;2023-08-20T01:42:37;9.07;;;5.47;;
79249;SDS011;68679;51.030;7.584;2023-08-20T01:45:03;14.75;;;6.30;;
79249;SDS011;68679;51.030;7.584;2023-08-20T01:47:29;14.15;;;6.03;;
79249;SDS011;68679;51.030;7.584;2023-08-20T01:49:55;10.82;;;6.22;;
79249;SDS011;68679;51.030;7.584;2023-08-20T01:52:20;14.70;;;6.83;;
79249;SDS011;68679;51.030;7.584;2023-08-20T01:54:45;10.13;;;5.83;;
79249;SDS011;68679;51.030;7.584;2023-08-20T01:57:11;12.80;;;5.80;;
79249;SDS011;68679;51.030;7.584;2023-08-20T01:59:36;8.47;;;5.37;;
79249;SDS011;68679;51.030;7.584;2023-08-20T02:02:01;11.53;;;6.17;;
79249;SDS011;68679;51.030;7.584;2023-08-20T02:04:27;10.13;;;5.68;;
79249;SDS011;68679;51.030;7.584;2023-08-20T02:06:52;9.87;;;5.63;;
79249;SDS011;68679;51.030;7.584;2023-08-20T02:09:18;8.20;;;5.57;;
79249;SDS011;68679;51.030;7.584;2023-08-20T02:11:44;9.30;;;5.82;;
79249;SDS011;68679;51.030;7.584;2023-08-20T02:14:10;10.15;;;5.93;;
79249;SDS011;68679;51.030;7.584;2023-08-20T02:16:35;13.07;;;6.13;;
79249;SDS011;68679;51.030;7.584;2023-08-20T02:19:01;11.45;;;5.22;;
79249;SDS011;68679;51.030;7.584;2023-08-20T02:21:27;10.52;;;5.38;;
79249;SDS011;68679;51.030;7.584;2023-08-20T02:23:53;11.88;;;5.47;;
79249;SDS011;68679;51.030;7.584;2023-08-20T02:26:18;12.73;;;5.53;;
79249;SDS011;68679;51.030;7.584;2023-08-20T02:28:44;11.77;;;6.60;;
79249;SDS011;68679;51.030;7.584;2023-08-20T02:31:09;9.87;;;6.67;;
79249;SDS011;68679;51.030;7.584;2023-08-20T02:33:34;12.70;;;5.50;;
79249;SDS011;68679;51.030;7.584;2023-08-20T02:36:03;10.07;;;5.97;;
79249;SDS011;68679;51.030;7.584;2023-08-20T02:38:29;10.00;;;5.57;;
79249;SDS011;68679;51.030;7.584;2023-08-20T02:40:54;10.15;;;5.28;;
79249;SDS011;68679;51.030;7.584;2023-08-20T02:43:20;11.18;;;5.65;;
79249;SDS011;68679;51.030;7.584;2023-08-20T02:45:45;7.40;;;5.17;;
79249;SDS011;68679;51.030;7.584;2023-08-20T02:48:10;11.40;;;5.73;;
79249;SDS011;68679;51.030;7.584;2023-08-20T02:50:36;10.32;;;5.65;;
79249;SDS011;68679;51.030;7.584;2023-08-20T02:53:01;10.70;;;5.83;;
79249;SDS011;68679;51.030;7.584;2023-08-20T02:55:28;13.07;;;6.30;;
79249;SDS011;68679;51.030;7.584;2023-08-20T02:57:53;10.20;;;5.55;;
79249;SDS011;68679;51.030;7.584;2023-08-20T03:00:18;9.80;;;5.87;;
79249;SDS011;68679;51.030;7.584;2023-08-20T03:02:44;10.60;;;5.77;;
79249;SDS011;68679;51.030;7.584;2023-08-20T03:05:09;10.50;;;6.40;;
79249;SDS011;68679;51.030;7.584;2023-08-20T03:07:35;10.63;;;5.32;;
79249;SDS011;68679;51.030;7.584;2023-08-20T03:10:00;9.75;;;5.78;;
79249;SDS011;68679;51.030;7.584;2023-08-20T03:12:25;12.52;;;5.80;;
79249;SDS011;68679;51.030;7.584;2023-08-20T03:14:51;9.43;;;5.90;;
79249;SDS011;68679;51.030;7.584;2023-08-20T03:17:16;9.40;;;5.53;;
79249;SDS011;68679;51.030;7.584;2023-08-20T03:19:53;12.73;;;5.47;;
79249;SDS011;68679;51.030;7.584;2023-08-20T03:22:23;8.07;;;5.43;;
79249;SDS011;68679;51.030;7.584;2023-08-20T03:24:49;11.20;;;5.93;;
79249;SDS011;68679;51.030;7.584;2023-08-20T03:27:15;9.15;;;5.45;;
79249;SDS011;68679;51.030;7.584;2023-08-20T03:29:41;13.48;;;5.38;;
79249;SDS011;68679;51.030;7.584;2023-08-20T03:32:06;9.67;;;5.67;;
79249;SDS011;68679;51.030;7.584;2023-08-20T03:34:31;11.17;;;5.13;;
79249;SDS011;68679;51.030;7.584;2023-08-20T03:36:56;13.63;;;5.47;;
79249;SDS011;68679;51.030;7.584;2023-08-20T03:39:22;9.10;;;5.20;;
79249;SDS011;68679;51.030;7.584;2023-08-20T03:41:47;8.80;;;5.20;;
79249;SDS011;68679;51.030;7.584;2023-08-20T03:44:12;12.10;;;6.37;;
79249;SDS011;68679;51.030;7.584;2023-08-20T03:46:37;12.73;;;6.67;;
79249;SDS011;68679;51.030;7.584;2023-08-20T03:49:03;13.10;;;5.23;;
79249;SDS011;68679;51.030;7.584;2023-08-20T03:51:28;10.45;;;5.65;;
79249;SDS011;68679;51.030;7.584;2023-08-20T03:53:53;9.07;;;5.73;;
79249;SDS011;68679;51.030;7.584;2023-08-20T03:56:19;11.40;;;5.35;;
79249;SDS011;68679;51.030;7.584;2023-08-20T03:58:44;9.07;;;5.37;;
79249;SDS011;68679;51.030;7.584;2023-08-20T04:01:10;10.00;;;5.35;;
79249;SDS011;68679;51.030;7.584;2023-08-20T04:03:35;12.03;;;4.97;;
79249;SDS011;68679;51.030;7.584;2023-08-20T04:06:00;7.57;;;5.23;;
79249;SDS011;68679;51.030;7.584;2023-08-20T04:08:25;11.17;;;5.70;;
79249;SDS011;68679;51.030;7.584;2023-08-20T04:10:51;10.40;;;5.63;;
79249;SDS011;68679;51.030;7.584;2023-08-20T04:13:17;12.68;;;5.18;;
79249;SDS011;68679;51.030;7.584;2023-08-20T04:15:42;11.93;;;5.40;;
79249;SDS011;68679;51.030;7.584;2023-08-20T04:18:08;10.43;;;5.47;;
79249;SDS011;68679;51.030;7.584;2023-08-20T04:20:33;9.93;;;5.40;;
79249;SDS011;68679;51.030;7.584;2023-08-20T04:22:58;10.07;;;5.45;;
79249;SDS011;68679;51.030;7.584;2023-08-20T04:25:24;8.30;;;5.05;;
79249;SDS011;68679;51.030;7.584;2023-08-20T04:27:49;11.10;;;5.47;;
79249;SDS011;68679;51.030;7.584;2023-08-20T04:30:14;10.13;;;4.90;;
79249;SDS011;68679;51.030;7.584;2023-08-20T04:32:40;11.90;;;5.63;;
79249;SDS011;68679;51.030;7.584;2023-08-20T04:35:05;12.25;;;5.45;;
79249;SDS011;68679;51.030;7.584;2023-08-20T04:37:31;11.70;;;5.00;;
79249;SDS011;68679;51.030;7.584;2023-08-20T04:39:56;11.17;;;5.60;;
79249;SDS011;68679;51.030;7.584;2023-08-20T04:42:21;11.87;;;5.53;;
79249;SDS011;68679;51.030;7.584;2023-08-20T04:44:47;11.50;;;4.97;;
79249;SDS011;68679;51.030;7.584;2023-08-20T04:47:12;9.13;;;4.77;;
79249;SDS011;68679;51.030;7.584;2023-08-20T04:49:38;7.47;;;5.10;;
79249;SDS011;68679;51.030;7.584;2023-08-20T04:52:03;10.40;;;5.80;;
79249;SDS011;68679;51.030;7.584;2023-08-20T04:54:29;8.45;;;4.60;;
79249;SDS011;68679;51.030;7.584;2023-08-20T04:56:54;10.10;;;4.83;;
79249;SDS011;68679;51.030;7.584;2023-08-20T04:59:19;10.63;;;5.40;;
79249;SDS011;68679;51.030;7.584;2023-08-20T05:01:44;6.73;;;4.97;;
79249;SDS011;68679;51.030;7.584;2023-08-20T05:04:10;9.83;;;5.03;;
79249;SDS011;68679;51.030;7.584;2023-08-20T05:06:35;13.18;;;5.70;;
79249;SDS011;68679;51.030;7.584;2023-08-20T05:09:00;9.27;;;5.30;;
79249;SDS011;68679;51.030;7.584;2023-08-20T05:11:25;11.93;;;5.67;;
79249;SDS011;68679;51.030;7.584;2023-08-20T05:13:51;9.07;;;5.20;;
79249;SDS011;68679;51.030;7.584;2023-08-20T05:16:16;8.70;;;5.13;;
79249;SDS011;68679;51.030;7.584;2023-08-20T05:18:43;7.97;;;5.30;;
79249;SDS011;68679;51.030;7.584;2023-08-20T05:21:08;8.15;;;5.28;;
79249;SDS011;68679;51.030;7.584;2023-08-20T05:23:36;10.40;;;5.15;;
79249;SDS011;68679;51.030;7.584;2023-08-20T05:26:01;14.23;;;4.97;;
79249;SDS011;68679;51.030;7.584;2023-08-20T05:28:27;12.93;;;5.60;;
79249;SDS011;68679;51.030;7.584;2023-08-20T05:30:54;8.23;;;4.90;;
79249;SDS011;68679;51.030;7.584;2023-08-20T05:33:21;15.07;;;5.32;;
79249;SDS011;68679;51.030;7.584;2023-08-20T05:35:46;10.27;;;5.23;;
79249;SDS011;68679;51.030;7.584;2023-08-20T05:38:11;8.73;;;4.70;;
79249;SDS011;68679;51.030;7.584;2023-08-20T05:40:37;11.50;;;5.83;;
79249;SDS011;68679;51.030;7.584;2023-08-20T05:43:02;11.98;;;6.30;;
79249;SDS011;68679;51.030;7.584;2023-08-20T05:45:28;10.80;;;5.55;;
79249;SDS011;68679;51.030;7.584;2023-08-20T05:47:53;8.93;;;5.33;;
79249;SDS011;68679;51.030;7.584;2023-08-20T05:50:18;10.70;;;5.67;;
79249;SDS011;68679;51.030;7.584;2023-08-20T05:52:43;10.37;;;5.43;;
79249;SDS011;68679;51.030;7.584;2023-08-20T05:55:09;11.33;;;5.67;;
79249;SDS011;68679;51.030;7.584;2023-08-20T05:57:35;11.68;;;5.70;;
79249;SDS011;68679;51.030;7.584;2023-08-20T06:00:02;7.78;;;5.47;;
79249;SDS011;68679;51.030;7.584;2023-08-20T06:02:29;9.57;;;5.70;;
79249;SDS011;68679;51.030;7.584;2023-08-20T06:04:54;8.40;;;5.65;;
79249;SDS011;68679;51.030;7.584;2023-08-20T06:07:20;12.18;;;5.72;;
79249;SDS011;68679;51.030;7.584;2023-08-20T06:09:45;11.90;;;6.38;;
79249;SDS011;68679;51.030;7.584;2023-08-20T06:12:11;14.52;;;6.13;;
79249;SDS011;68679;51.030;7.584;2023-08-20T06:14:36;8.37;;;5.93;;
79249;SDS011;68679;51.030;7.584;2023-08-20T06:17:02;9.20;;;5.60;;
79249;SDS011;68679;51.030;7.584;2023-08-20T06:19:27;10.55;;;6.22;;
79249;SDS011;68679;51.030;7.584;2023-08-20T06:21:53;12.00;;;6.18;;
79249;SDS011;68679;51.030;7.584;2023-08-20T06:24:18;13.67;;;5.93;;
79249;SDS011;68679;51.030;7.584;2023-08-20T06:26:43;10.97;;;6.30;;
79249;SDS011;68679;51.030;7.584;2023-08-20T06:29:09;10.82;;;6.07;;
79249;SDS011;68679;51.030;7.584;2023-08-20T06:31:35;12.68;;;6.88;;
79249;SDS011;68679;51.030;7.584;2023-08-20T06:34:00;13.27;;;6.07;;
79249;SDS011;68679;51.030;7.584;2023-08-20T06:36:26;12.17;;;6.47;;
79249;SDS011;68679;51.030;7.584;2023-08-20T06:38:51;12.32;;;5.90;;
79249;SDS011;68679;51.030;7.584;2023-08-20T06:41:17;11.40;;;6.20;;
79249;SDS011;68679;51.030;7.584;2023-08-20T06:43:42;12.57;;;6.50;;
79249;SDS011;68679;51.030;7.584;2023-08-20T06:46:08;14.70;;;6.23;;
79249;SDS011;68679;51.030;7.584;2023-08-20T06:48:34;12.50;;;6.60;;
79249;SDS011;68679;51.030;7.584;2023-08-20T06:51:07;13.18;;;7.10;;
79249;SDS011;68679;51.030;7.584;2023-08-20T06:53:33;10.57;;;6.07;;
79249;SDS011;68679;51.030;7.584;2023-08-20T06:55:58;11.80;;;6.57;;
79249;SDS011;68679;51.030;7.584;2023-08-20T06:58:23;9.70;;;6.27;;
79249;SDS011;68679;51.030;7.584;2023-08-20T07:00:49;13.03;;;6.70;;
79249;SDS011;68679;51.030;7.584;2023-08-20T07:03:14;12.60;;;6.23;;
79249;SDS011;68679;51.030;7.584;2023-08-20T07:05:39;12.33;;;6.60;;
79249;SDS011;68679;51.030;7.584;2023-08-20T07:08:05;11.27;;;6.83;;
79249;SDS011;68679;51.030;7.584;2023-08-20T07:10:30;10.50;;;6.78;;
79249;SDS011;68679;51.030;7.584;2023-08-20T07:12:55;12.27;;;6.17;;
79249;SDS011;68679;51.030;7.584;2023-08-20T07:15:20;10.90;;;6.73;;
79249;SDS011;68679;51.030;7.584;2023-08-20T07:17:46;13.27;;;7.50;;
79249;SDS011;68679;51.030;7.584;2023-08-20T07:20:11;10.40;;;6.93;;
79249;SDS011;68679;51.030;7.584;2023-08-20T07:22:36;11.57;;;6.88;;
79249;SDS011;68679;51.030;7.584;2023-08-20T07:25:02;14.13;;;6.50;;
79249;SDS011;68679;51.030;7.584;2023-08-20T07:27:27;12.38;;;6.40;;
79249;SDS011;68679;51.030;7.584;2023-08-20T07:29:52;12.13;;;6.87;;
79249;SDS011;68679;51.030;7.584;2023-08-20T07:32:18;12.57;;;6.77;;
79249;SDS011;68679;51.030;7.584;2023-08-20T07:34:43;10.77;;;6.20;;
79249;SDS011;68679;51.030;7.584;2023-08-20T07:37:08;12.97;;;6.60;;
79249;SDS011;68679;51.030;7.584;2023-08-20T07:39:34;13.40;;;6.87;;
79249;SDS011;68679;51.030;7.584;2023-08-20T07:41:59;10.70;;;6.80;;
79249;SDS011;68679;51.030;7.584;2023-08-20T07:44:25;9.18;;;6.18;;
79249;SDS011;68679;51.030;7.584;2023-08-20T07:46:50;10.88;;;6.05;;
79249;SDS011;68679;51.030;7.584;2023-08-20T07:49:19;10.80;;;6.03;;
79249;SDS011;68679;51.030;7.584;2023-08-20T07:51:44;8.50;;;6.00;;
79249;SDS011;68679;51.030;7.584;2023-08-20T07:54:09;9.67;;;5.83;;
79249;SDS011;68679;51.030;7.584;2023-08-20T07:56:35;10.47;;;5.93;;
79249;SDS011;68679;51.030;7.584;2023-08-20T07:59:00;10.85;;;5.65;;
79249;SDS011;68679;51.030;7.584;2023-08-20T08:01:25;7.73;;;5.03;;
79249;SDS011;68679;51.030;7.584;2023-08-20T08:03:51;7.60;;;4.75;;
79249;SDS011;68679;51.030;7.584;2023-08-20T08:06:18;11.10;;;5.55;;
79249;SDS011;68679;51.030;7.584;2023-08-20T08:08:44;13.70;;;5.32;;
79249;SDS011;68679;51.030;7.584;2023-08-20T08:11:10;8.50;;;4.72;;
79249;SDS011;68679;51.030;7.584;2023-08-20T08:13:35;6.30;;;4.50;;
79249;SDS011;68679;51.030;7.584;2023-08-20T08:16:00;10.37;;;4.77;;
79249;SDS011;68679;51.030;7.584;2023-08-20T08:18:26;8.97;;;4.90;;
79249;SDS011;68679;51.030;7.584;2023-08-20T08:20:51;7.97;;;4.90;;
79249;SDS011;68679;51.030;7.584;2023-08-20T08:23:16;8.13;;;4.87;;
79249;SDS011;68679;51.030;7.584;2023-08-20T08:25:41;7.77;;;5.47;;
79249;SDS011;68679;51.030;7.584;2023-08-20T08:28:07;11.37;;;5.40;;
79249;SDS011;68679;51.030;7.584;2023-08-20T08:30:32;8.77;;;5.53;;
79249;SDS011;68679;51.030;7.584;2023-08-20T08:32:57;10.48;;;5.65;;
79249;SDS011;68679;51.030;7.584;2023-08-20T08:35:23;11.50;;;4.95;;
79249;SDS011;68679;51.030;7.584;2023-08-20T08:37:49;10.80;;;5.07;;
79249;SDS011;68679;51.030;7.584;2023-08-20T08:40:14;8.80;;;4.90;;
79249;SDS011;68679;51.030;7.584;2023-08-20T08:42:40;9.17;;;5.03;;
79249;SDS011;68679;51.030;7.584;2023-08-20T08:45:06;9.27;;;5.43;;
79249;SDS011;68679;51.030;7.584;2023-08-20T08:47:33;8.25;;;5.53;;
79249;SDS011;68679;51.030;7.584;2023-08-20T08:49:59;11.65;;;6.10;;
79249;SDS011;68679;51.030;7.584;2023-08-20T08:52:24;14.43;;;6.85;;
79249;SDS011;68679;51.030;7.584;2023-08-20T08:54:50;10.75;;;6.38;;
79249;SDS011;68679;51.030;7.584;2023-08-20T08:57:16;10.70;;;6.40;;
79249;SDS011;68679;51.030;7.584;2023-08-20T08:59:41;11.18;;;6.47;;
79249;SDS011;68679;51.030;7.584;2023-08-20T09:02:08;16.10;;;6.03;;
79249;SDS011;68679;51.030;7.584;2023-08-20T09:04:37;10.52;;;6.32;;
79249;SDS011;68679;51.030;7.584;2023-08-20T09:07:04;9.00;;;5.78;;
79249;SDS011;68679;51.030;7.584;2023-08-20T09:09:30;8.90;;;5.47;;
79249;SDS011;68679;51.030;7.584;2023-08-20T09:11:56;8.77;;;5.38;;
79249;SDS011;68679;51.030;7.584;2023-08-20T09:16:53;9.00;;;5.88;;
79249;SDS011;68679;51.030;7.584;2023-08-20T09:19:20;8.45;;;6.07;;
79249;SDS011;68679;51.030;7.584;2023-08-20T09:21:48;10.60;;;6.43;;
79249;SDS011;68679;51.030;7.584;2023-08-20T09:24:14;10.63;;;6.75;;
79249;SDS011;68679;51.030;7.584;2023-08-20T09:26:39;12.17;;;6.57;;
79249;SDS011;68679;51.030;7.584;2023-08-20T09:29:09;12.05;;;6.78;;
79249;SDS011;68679;51.030;7.584;2023-08-20T09:31:38;11.13;;;6.93;;
79249;SDS011;68679;51.030;7.584;2023-08-20T09:34:04;9.90;;;6.50;;
79249;SDS011;68679;51.030;7.584;2023-08-20T09:36:31;12.70;;;7.28;;
79249;SDS011;68679;51.030;7.584;2023-08-20T09:38:57;9.82;;;6.30;;
79249;SDS011;68679;51.030;7.584;2023-08-20T09:41:25;11.38;;;7.30;;
79249;SDS011;68679;51.030;7.584;2023-08-20T09:43:57;14.23;;;7.53;;
79249;SDS011;68679;51.030;7.584;2023-08-20T09:46:23;11.98;;;7.15;;
79249;SDS011;68679;51.030;7.584;2023-08-20T09:48:50;9.23;;;6.40;;
79249;SDS011;68679;51.030;7.584;2023-08-20T09:51:17;9.88;;;6.38;;
79249;SDS011;68679;51.030;7.584;2023-08-20T09:54:03;10.45;;;6.80;;
79249;SDS011;68679;51.030;7.584;2023-08-20T09:56:38;12.05;;;6.53;;
79249;SDS011;68679;51.030;7.584;2023-08-20T09:59:04;11.45;;;6.40;;
79249;SDS011;68679;51.030;7.584;2023-08-20T10:01:30;9.77;;;6.10;;
79249;SDS011;68679;51.030;7.584;2023-08-20T10:03:56;10.00;;;5.90;;
79249;SDS011;68679;51.030;7.584;2023-08-20T10:06:21;10.57;;;5.85;;
79249;SDS011;68679;51.030;7.584;2023-08-20T10:08:48;8.25;;;6.07;;
79249;SDS011;68679;51.030;7.584;2023-08-20T10:11:15;13.70;;;6.22;;
79249;SDS011;68679;51.030;7.584;2023-08-20T10:13:41;9.15;;;6.32;;
79249;SDS011;68679;51.030;7.584;2023-08-20T10:16:06;8.98;;;6.43;;
79249;SDS011;68679;51.030;7.584;2023-08-20T10:18:31;10.77;;;6.80;;
79249;SDS011;68679;51.030;7.584;2023-08-20T10:21:00;10.38;;;6.35;;
79249;SDS011;68679;51.030;7.584;2023-08-20T10:23:26;10.02;;;6.25;;
79249;SDS011;68679;51.030;7.584;2023-08-20T10:25:52;9.43;;;6.55;;
79249;SDS011;68679;51.030;7.584;2023-08-20T10:31:03;8.10;;;5.53;;
79249;SDS011;68679;51.030;7.584;2023-08-20T10:33:54;12.10;;;5.43;;
79249;SDS011;68679;51.030;7.584;2023-08-20T10:36:23;7.53;;;5.10;;
79249;SDS011;68679;51.030;7.584;2023-08-20T10:38:55;8.65;;;5.40;;
79249;SDS011;68679;51.030;7.584;2023-08-20T10:41:28;8.27;;;5.25;;
79249;SDS011;68679;51.030;7.584;2023-08-20T10:43:57;8.00;;;5.28;;
79249;SDS011;68679;51.030;7.584;2023-08-20T10:46:24;9.23;;;5.82;;
79249;SDS011;68679;51.030;7.584;2023-08-20T10:48:51;10.65;;;5.45;;
79249;SDS011;68679;51.030;7.584;2023-08-20T10:51:18;10.27;;;6.03;;
79249;SDS011;68679;51.030;7.584;2023-08-20T10:56:39;7.55;;;5.60;;
79249;SDS011;68679;51.030;7.584;2023-08-20T10:59:09;7.53;;;5.88;;
79249;SDS011;68679;51.030;7.584;2023-08-20T11:01:47;8.45;;;5.82;;
79249;SDS011;68679;51.030;7.584;2023-08-20T11:04:18;9.18;;;6.13;;
79249;SDS011;68679;51.030;7.584;2023-08-20T11:06:45;8.50;;;5.90;;
79249;SDS011;68679;51.030;7.584;2023-08-20T11:09:11;6.82;;;5.57;;
79249;SDS011;68679;51.030;7.584;2023-08-20T11:11:38;10.57;;;5.95;;
79249;SDS011;68679;51.030;7.584;2023-08-20T11:14:08;9.20;;;5.63;;
79249;SDS011;68679;51.030;7.584;2023-08-20T11:16:38;8.32;;;5.55;;
79249;SDS011;68679;51.030;7.584;2023-08-20T11:19:04;8.02;;;6.00;;
79249;SDS011;68679;51.030;7.584;2023-08-20T11:23:59;10.10;;;6.00;;
79249;SDS011;68679;51.030;7.584;2023-08-20T11:26:26;9.95;;;5.55;;
79249;SDS011;68679;51.030;7.584;2023-08-20T11:28:51;9.27;;;5.80;;
79249;SDS011;68679;51.030;7.584;2023-08-20T11:31:17;8.20;;;5.93;;
79249;SDS011;68679;51.030;7.584;2023-08-20T11:33:42;8.50;;;5.80;;
79249;SDS011;68679;51.030;7.584;2023-08-20T11:36:08;7.57;;;5.43;;
79249;SDS011;68679;51.030;7.584;2023-08-20T11:38:33;7.38;;;5.95;;
79249;SDS011;68679;51.030;7.584;2023-08-20T11:40:58;8.30;;;5.80;;
79249;SDS011;68679;51.030;7.584;2023-08-20T11:43:24;8.75;;;6.05;;
79249;SDS011;68679;51.030;7.584;2023-08-20T11:45:52;8.93;;;6.35;;
79249;SDS011;68679;51.030;7.584;2023-08-20T11:48:19;7.53;;;5.88;;
79249;SDS011;68679;51.030;7.584;2023-08-20T11:50:46;9.95;;;5.88;;
79249;SDS011;68679;51.030;7.584;2023-08-20T11:53:11;9.85;;;5.88;;
79249;SDS011;68679;51.030;7.584;2023-08-20T11:55:37;9.38;;;6.20;;
79249;SDS011;68679;51.030;7.584;2023-08-20T11:58:04;10.38;;;6.47;;
79249;SDS011;68679;51.030;7.584;2023-08-20T12:00:30;8.60;;;5.93;;
79249;SDS011;68679;51.030;7.584;2023-08-20T12:02:57;7.82;;;5.43;;
79249;SDS011;68679;51.030;7.584;2023-08-20T12:05:28;7.68;;;5.82;;
79249;SDS011;68679;51.030;7.584;2023-08-20T12:07:57;10.23;;;6.38;;
79249;SDS011;68679;51.030;7.584;2023-08-20T12:10:24;7.78;;;5.30;;
79249;SDS011;68679;51.030;7.584;2023-08-20T12:12:51;8.00;;;5.10;;
79249;SDS011;68679;51.030;7.584;2023-08-20T12:15:17;8.65;;;5.72;;
79249;SDS011;68679;51.030;7.584;2023-08-20T12:20:41;8.43;;;6.03;;
79249;SDS011;68679;51.030;7.584;2023-08-20T12:23:07;10.07;;;6.28;;
79249;SDS011;68679;51.030;7.584;2023-08-20T12:25:32;8.60;;;6.15;;
79249;SDS011;68679;51.030;7.584;2023-08-20T12:28:02;8.77;;;5.82;;
79249;SDS011;68679;51.030;7.584;2023-08-20T12:30:31;8.18;;;6.07;;
79249;SDS011;68679;51.030;7.584;2023-08-20T12:32:57;9.48;;;6.47;;
79249;SDS011;68679;51.030;7.584;2023-08-20T12:35:22;8.07;;;6.18;;
79249;SDS011;68679;51.030;7.584;2023-08-20T12:37:48;8.47;;;5.63;;
79249;SDS011;68679;51.030;7.584;2023-08-20T12:40:13;11.05;;;6.10;;
79249;SDS011;68679;51.030;7.584;2023-08-20T12:42:39;9.02;;;5.35;;
79249;SDS011;68679;51.030;7.584;2023-08-20T12:45:05;9.13;;;6.03;;
79249;SDS011;68679;51.030;7.584;2023-08-20T12:47:31;6.65;;;4.90;;
79249;SDS011;68679;51.030;7.584;2023-08-20T12:49:56;7.75;;;4.75;;
79249;SDS011;68679;51.030;7.584;2023-08-20T12:52:21;10.07;;;5.27;;
79249;SDS011;68679;51.030;7.584;2023-08-20T12:54:47;5.23;;;4.03;;
79249;SDS011;68679;51.030;7.584;2023-08-20T12:57:12;5.60;;;4.20;;
79249;SDS011;68679;51.030;7.584;2023-08-20T12:59:37;8.20;;;4.43;;
79249;SDS011;68679;51.030;7.584;2023-08-20T13:02:02;6.03;;;4.50;;
79249;SDS011;68679;51.030;7.584;2023-08-20T13:04:28;6.93;;;4.40;;
79249;SDS011;68679;51.030;7.584;2023-08-20T13:06:54;8.23;;;5.13;;
79249;SDS011;68679;51.030;7.584;2023-08-20T13:09:19;8.43;;;4.93;;
79249;SDS011;68679;51.030;7.584;2023-08-20T13:11:45;7.18;;;5.15;;
79249;SDS011;68679;51.030;7.584;2023-08-20T13:14:12;7.57;;;5.25;;
79249;SDS011;68679;51.030;7.584;2023-08-20T13:16:37;6.63;;;5.25;;
79249;SDS011;68679;51.030;7.584;2023-08-20T13:19:03;8.05;;;5.05;;
79249;SDS011;68679;51.030;7.584;2023-08-20T13:21:28;8.80;;;5.18;;
79249;SDS011;68679;51.030;7.584;2023-08-20T13:23:54;7.57;;;5.30;;
79249;SDS011;68679;51.030;7.584;2023-08-20T13:26:19;5.68;;;4.95;;
79249;SDS011;68679;51.030;7.584;2023-08-20T13:28:47;6.88;;;5.72;;
79249;SDS011;68679;51.030;7.584;2023-08-20T13:31:12;8.43;;;5.55;;
79249;SDS011;68679;51.030;7.584;2023-08-20T13:33:38;6.25;;;4.63;;
79249;SDS011;68679;51.030;7.584;2023-08-20T13:36:04;8.65;;;5.57;;
79249;SDS011;68679;51.030;7.584;2023-08-20T13:38:29;9.18;;;5.55;;
79249;SDS011;68679;51.030;7.584;2023-08-20T13:40:55;8.23;;;5.03;;
79249;SDS011;68679;51.030;7.584;2023-08-20T13:43:22;6.95;;;5.03;;
79249;SDS011;68679;51.030;7.584;2023-08-20T13:45:48;6.40;;;4.80;;
79249;SDS011;68679;51.030;7.584;2023-08-20T13:48:13;7.93;;;5.40;;
79249;SDS011;68679;51.030;7.584;2023-08-20T13:50:38;7.57;;;5.53;;
79249;SDS011;68679;51.030;7.584;2023-08-20T13:53:04;6.72;;;5.00;;
79249;SDS011;68679;51.030;7.584;2023-08-20T13:55:29;7.20;;;5.17;;
79249;SDS011;68679;51.030;7.584;2023-08-20T13:57:56;11.85;;;5.18;;
79249;SDS011;68679;51.030;7.584;2023-08-20T14:00:21;7.93;;;5.20;;
79249;SDS011;68679;51.030;7.584;2023-08-20T14:02:46;6.10;;;4.72;;
79249;SDS011;68679;51.030;7.584;2023-08-20T14:05:12;6.90;;;4.90;;
79249;SDS011;68679;51.030;7.584;2023-08-20T14:07:37;8.27;;;5.90;;
79249;SDS011;68679;51.030;7.584;2023-08-20T14:10:03;10.43;;;5.78;;
79249;SDS011;68679;51.030;7.584;2023-08-20T14:12:29;6.95;;;5.10;;
79249;SDS011;68679;51.030;7.584;2023-08-20T14:14:55;7.78;;;5.07;;
79249;SDS011;68679;51.030;7.584;2023-08-20T14:17:20;7.55;;;5.13;;
79249;SDS011;68679;51.030;7.584;2023-08-20T14:19:46;8.18;;;5.60;;
79249;SDS011;68679;51.030;7.584;2023-08-20T14:22:11;7.03;;;5.37;;
79249;SDS011;68679;51.030;7.584;2023-08-20T14:24:36;7.57;;;4.80;;
79249;SDS011;68679;51.030;7.584;2023-08-20T14:27:02;7.25;;;5.03;;
79249;SDS011;68679;51.030;7.584;2023-08-20T14:29:27;11.27;;;5.65;;
79249;SDS011;68679;51.030;7.584;2023-08-20T14:31:53;6.70;;;5.40;;
79249;SDS011;68679;51.030;7.584;2023-08-20T14:34:18;9.52;;;4.95;;
79249;SDS011;68679;51.030;7.584;2023-08-20T14:36:44;9.35;;;5.18;;
79249;SDS011;68679;51.030;7.584;2023-08-20T14:39:09;8.05;;;5.40;;
79249;SDS011;68679;51.030;7.584;2023-08-20T14:41:35;8.38;;;4.75;;
79249;SDS011;68679;51.030;7.584;2023-08-20T14:44:00;9.53;;;5.63;;
79249;SDS011;68679;51.030;7.584;2023-08-20T14:46:26;8.57;;;5.60;;
79249;SDS011;68679;51.030;7.584;2023-08-20T14:48:51;8.13;;;5.60;;
79249;SDS011;68679;51.030;7.584;2023-08-20T14:51:16;7.13;;;5.47;;
79249;SDS011;68679;51.030;7.584;2023-08-20T14:53:42;7.33;;;5.40;;
79249;SDS011;68679;51.030;7.584;2023-08-20T14:56:07;6.97;;;5.25;;